sensor_id;sensor_type;location;lat;lon;timestamp;P1;durP1;ratioP1;P2;durP2;ratioP2
13173;SDS011;6652;48.802;9.190;2023-08-06T00:00:21;9.30;;;6.55;;
13173;SDS011;6652;48.802;9.190;2023-08-06T00:02:49;9.55;;;6.97;;
13173;SDS011;6652;48.802;9.190;2023-08-06T00:05:16;9.77;;;6.78;;
13173;SDS011;6652;48.802;9.190;2023-08-06T00:07:46;14.70;;;6.82;;
13173;SDS011;6652;48.802;9.190;2023-08-06T00:10:13;10.18;;;7.55;;
13173;SDS011;6652;48.802;9.190;2023-08-06T00:12:39;9.98;;;7.55;;
13173;SDS011;6652;48.802;9.190;2023-08-06T00:15:08;10.45;;;7.25;;
13173;SDS011;6652;48.802;9.190;2023-08-06T00:17:36;8.88;;;7.45;;
13173;SDS011;6652;48.802;9.190;2023-08-06T00:20:03;12.82;;;8.27;;
13173;SDS011;6652;48.802;9.190;2023-08-06T00:22:31;12.70;;;8.65;;
13173;SDS011;6652;48.802;9.190;2023-08-06T00:24:58;15.80;;;8.07;;
13173;SDS011;6652;48.802;9.190;2023-08-06T00:27:25;13.23;;;8.73;;
13173;SDS011;6652;48.802;9.190;2023-08-06T00:29:51;15.65;;;8.20;;
13173;SDS011;6652;48.802;9.190;2023-08-06T00:32:20;13.35;;;9.55;;
13173;SDS011;6652;48.802;9.190;2023-08-06T00:34:47;13.40;;;8.32;;
13173;SDS011;6652;48.802;9.190;2023-08-06T00:37:15;10.48;;;6.80;;
13173;SDS011;6652;48.802;9.190;2023-08-06T00:39:42;9.80;;;5.85;;
13173;SDS011;6652;48.802;9.190;2023-08-06T00:42:10;7.47;;;5.50;;
13173;SDS011;6652;48.802;9.190;2023-08-06T00:44:37;13.00;;;6.38;;
13173;SDS011;6652;48.802;9.190;2023-08-06T00:47:04;8.45;;;5.93;;
13173;SDS011;6652;48.802;9.190;2023-08-06T00:49:33;7.20;;;5.43;;
13173;SDS011;6652;48.802;9.190;2023-08-06T00:52:01;13.07;;;6.22;;
13173;SDS011;6652;48.802;9.190;2023-08-06T00:54:30;7.60;;;5.00;;
13173;SDS011;6652;48.802;9.190;2023-08-06T00:56:57;6.53;;;5.32;;
13173;SDS011;6652;48.802;9.190;2023-08-06T00:59:27;8.30;;;4.57;;
13173;SDS011;6652;48.802;9.190;2023-08-06T01:01:54;11.23;;;5.93;;
13173;SDS011;6652;48.802;9.190;2023-08-06T01:04:21;11.32;;;5.20;;
13173;SDS011;6652;48.802;9.190;2023-08-06T01:06:52;7.93;;;5.18;;
13173;SDS011;6652;48.802;9.190;2023-08-06T01:09:39;8.07;;;4.72;;
13173;SDS011;6652;48.802;9.190;2023-08-06T01:12:14;9.75;;;5.68;;
13173;SDS011;6652;48.802;9.190;2023-08-06T01:14:52;8.98;;;5.60;;
13173;SDS011;6652;48.802;9.190;2023-08-06T01:17:27;7.05;;;5.40;;
13173;SDS011;6652;48.802;9.190;2023-08-06T01:19:55;9.73;;;5.60;;
13173;SDS011;6652;48.802;9.190;2023-08-06T01:22:24;5.90;;;4.90;;
13173;SDS011;6652;48.802;9.190;2023-08-06T01:24:50;6.38;;;5.05;;
13173;SDS011;6652;48.802;9.190;2023-08-06T01:27:22;8.13;;;5.00;;
13173;SDS011;6652;48.802;9.190;2023-08-06T01:29:54;13.40;;;5.57;;
13173;SDS011;6652;48.802;9.190;2023-08-06T01:32:26;10.23;;;6.25;;
13173;SDS011;6652;48.802;9.190;2023-08-06T01:34:58;10.30;;;5.20;;
13173;SDS011;6652;48.802;9.190;2023-08-06T01:37:27;7.72;;;4.68;;
13173;SDS011;6652;48.802;9.190;2023-08-06T01:39:54;10.25;;;5.63;;
13173;SDS011;6652;48.802;9.190;2023-08-06T01:42:21;6.47;;;4.22;;
13173;SDS011;6652;48.802;9.190;2023-08-06T01:44:48;9.10;;;3.85;;
13173;SDS011;6652;48.802;9.190;2023-08-06T01:47:15;6.32;;;3.92;;
13173;SDS011;6652;48.802;9.190;2023-08-06T01:49:41;5.80;;;3.90;;
13173;SDS011;6652;48.802;9.190;2023-08-06T01:52:08;4.15;;;3.75;;
13173;SDS011;6652;48.802;9.190;2023-08-06T01:54:36;6.05;;;3.67;;
13173;SDS011;6652;48.802;9.190;2023-08-06T01:57:03;5.82;;;3.25;;
13173;SDS011;6652;48.802;9.190;2023-08-06T01:59:31;5.70;;;3.55;;
13173;SDS011;6652;48.802;9.190;2023-08-06T02:01:57;9.70;;;3.60;;
13173;SDS011;6652;48.802;9.190;2023-08-06T02:04:24;5.07;;;3.05;;
13173;SDS011;6652;48.802;9.190;2023-08-06T02:06:51;5.38;;;3.30;;
13173;SDS011;6652;48.802;9.190;2023-08-06T02:09:18;6.30;;;2.75;;
13173;SDS011;6652;48.802;9.190;2023-08-06T02:11:46;4.15;;;2.95;;
13173;SDS011;6652;48.802;9.190;2023-08-06T02:14:12;6.60;;;3.05;;
13173;SDS011;6652;48.802;9.190;2023-08-06T02:16:39;7.07;;;3.10;;
13173;SDS011;6652;48.802;9.190;2023-08-06T02:19:06;4.60;;;3.08;;
13173;SDS011;6652;48.802;9.190;2023-08-06T02:21:33;4.07;;;2.67;;
13173;SDS011;6652;48.802;9.190;2023-08-06T02:23:59;4.97;;;2.50;;
13173;SDS011;6652;48.802;9.190;2023-08-06T02:26:26;7.97;;;3.63;;
13173;SDS011;6652;48.802;9.190;2023-08-06T02:28:54;8.98;;;3.28;;
13173;SDS011;6652;48.802;9.190;2023-08-06T02:31:21;6.53;;;2.95;;
13173;SDS011;6652;48.802;9.190;2023-08-06T02:33:48;6.10;;;2.90;;
13173;SDS011;6652;48.802;9.190;2023-08-06T02:36:15;9.23;;;2.75;;
13173;SDS011;6652;48.802;9.190;2023-08-06T02:38:42;3.63;;;3.08;;
13173;SDS011;6652;48.802;9.190;2023-08-06T02:41:08;3.70;;;2.85;;
13173;SDS011;6652;48.802;9.190;2023-08-06T02:43:35;4.72;;;3.00;;
13173;SDS011;6652;48.802;9.190;2023-08-06T02:46:03;3.78;;;3.33;;
13173;SDS011;6652;48.802;9.190;2023-08-06T02:48:30;3.50;;;2.95;;
13173;SDS011;6652;48.802;9.190;2023-08-06T02:50:57;5.25;;;3.60;;
13173;SDS011;6652;48.802;9.190;2023-08-06T02:53:25;8.40;;;3.70;;
13173;SDS011;6652;48.802;9.190;2023-08-06T02:55:52;4.97;;;3.50;;
13173;SDS011;6652;48.802;9.190;2023-08-06T02:58:19;4.10;;;3.08;;
13173;SDS011;6652;48.802;9.190;2023-08-06T03:00:50;6.03;;;3.50;;
13173;SDS011;6652;48.802;9.190;2023-08-06T03:03:26;5.95;;;3.70;;
13173;SDS011;6652;48.802;9.190;2023-08-06T03:05:53;15.57;;;3.72;;
13173;SDS011;6652;48.802;9.190;2023-08-06T03:08:20;8.38;;;3.80;;
13173;SDS011;6652;48.802;9.190;2023-08-06T03:10:47;3.65;;;3.20;;
13173;SDS011;6652;48.802;9.190;2023-08-06T03:13:14;5.88;;;3.15;;
13173;SDS011;6652;48.802;9.190;2023-08-06T03:15:41;7.68;;;3.20;;
13173;SDS011;6652;48.802;9.190;2023-08-06T03:18:08;4.32;;;2.53;;
13173;SDS011;6652;48.802;9.190;2023-08-06T03:20:36;6.45;;;3.80;;
13173;SDS011;6652;48.802;9.190;2023-08-06T03:23:03;6.13;;;2.80;;
13173;SDS011;6652;48.802;9.190;2023-08-06T03:25:30;3.47;;;2.20;;
13173;SDS011;6652;48.802;9.190;2023-08-06T03:27:56;8.52;;;3.05;;
13173;SDS011;6652;48.802;9.190;2023-08-06T03:30:23;3.35;;;2.03;;
13173;SDS011;6652;48.802;9.190;2023-08-06T03:32:50;6.28;;;2.42;;
13173;SDS011;6652;48.802;9.190;2023-08-06T03:35:17;5.30;;;2.58;;
13173;SDS011;6652;48.802;9.190;2023-08-06T03:37:45;10.40;;;4.22;;
13173;SDS011;6652;48.802;9.190;2023-08-06T03:40:12;4.50;;;2.78;;
13173;SDS011;6652;48.802;9.190;2023-08-06T03:42:38;5.70;;;2.22;;
13173;SDS011;6652;48.802;9.190;2023-08-06T03:45:05;3.30;;;2.58;;
13173;SDS011;6652;48.802;9.190;2023-08-06T03:47:33;3.28;;;2.30;;
13173;SDS011;6652;48.802;9.190;2023-08-06T03:50:00;3.35;;;2.42;;
13173;SDS011;6652;48.802;9.190;2023-08-06T03:52:27;7.95;;;2.50;;
13173;SDS011;6652;48.802;9.190;2023-08-06T03:54:55;3.50;;;2.60;;
13173;SDS011;6652;48.802;9.190;2023-08-06T03:57:22;4.65;;;2.42;;
13173;SDS011;6652;48.802;9.190;2023-08-06T03:59:49;3.78;;;2.35;;
13173;SDS011;6652;48.802;9.190;2023-08-06T04:02:15;10.00;;;2.92;;
13173;SDS011;6652;48.802;9.190;2023-08-06T04:04:42;4.53;;;2.63;;
13173;SDS011;6652;48.802;9.190;2023-08-06T04:07:09;4.43;;;3.17;;
13173;SDS011;6652;48.802;9.190;2023-08-06T04:09:52;9.27;;;3.88;;
13173;SDS011;6652;48.802;9.190;2023-08-06T04:12:21;11.07;;;4.13;;
13173;SDS011;6652;48.802;9.190;2023-08-06T04:14:50;10.80;;;4.55;;
13173;SDS011;6652;48.802;9.190;2023-08-06T04:17:17;11.73;;;4.00;;
13173;SDS011;6652;48.802;9.190;2023-08-06T04:19:46;11.27;;;4.40;;
13173;SDS011;6652;48.802;9.190;2023-08-06T04:22:13;8.73;;;3.95;;
13173;SDS011;6652;48.802;9.190;2023-08-06T04:24:41;9.70;;;3.13;;
13173;SDS011;6652;48.802;9.190;2023-08-06T04:27:08;8.30;;;3.92;;
13173;SDS011;6652;48.802;9.190;2023-08-06T04:29:36;9.20;;;3.67;;
13173;SDS011;6652;48.802;9.190;2023-08-06T04:32:03;3.40;;;2.95;;
13173;SDS011;6652;48.802;9.190;2023-08-06T04:34:31;7.13;;;2.75;;
13173;SDS011;6652;48.802;9.190;2023-08-06T04:36:58;6.22;;;3.08;;
13173;SDS011;6652;48.802;9.190;2023-08-06T04:39:25;3.17;;;2.58;;
13173;SDS011;6652;48.802;9.190;2023-08-06T04:41:52;5.57;;;3.38;;
13173;SDS011;6652;48.802;9.190;2023-08-06T04:44:20;4.05;;;2.63;;
13173;SDS011;6652;48.802;9.190;2023-08-06T04:46:48;6.43;;;3.22;;
13173;SDS011;6652;48.802;9.190;2023-08-06T04:49:15;9.75;;;3.00;;
13173;SDS011;6652;48.802;9.190;2023-08-06T04:51:42;4.20;;;2.92;;
13173;SDS011;6652;48.802;9.190;2023-08-06T04:54:09;10.80;;;3.00;;
13173;SDS011;6652;48.802;9.190;2023-08-06T04:56:36;8.60;;;2.75;;
13173;SDS011;6652;48.802;9.190;2023-08-06T04:59:03;7.90;;;2.95;;
13173;SDS011;6652;48.802;9.190;2023-08-06T05:01:29;7.93;;;3.92;;
13173;SDS011;6652;48.802;9.190;2023-08-06T05:03:57;4.60;;;2.40;;
13173;SDS011;6652;48.802;9.190;2023-08-06T05:06:24;6.25;;;2.20;;
13173;SDS011;6652;48.802;9.190;2023-08-06T05:08:51;5.38;;;2.08;;
13173;SDS011;6652;48.802;9.190;2023-08-06T05:11:18;6.78;;;2.20;;
13173;SDS011;6652;48.802;9.190;2023-08-06T05:13:44;3.88;;;2.00;;
13173;SDS011;6652;48.802;9.190;2023-08-06T05:16:11;5.50;;;2.15;;
13173;SDS011;6652;48.802;9.190;2023-08-06T05:18:38;6.53;;;1.92;;
13173;SDS011;6652;48.802;9.190;2023-08-06T05:21:07;3.15;;;1.90;;
13173;SDS011;6652;48.802;9.190;2023-08-06T05:23:34;4.00;;;1.40;;
13173;SDS011;6652;48.802;9.190;2023-08-06T05:26:00;3.55;;;1.60;;
13173;SDS011;6652;48.802;9.190;2023-08-06T05:28:27;3.17;;;1.70;;
13173;SDS011;6652;48.802;9.190;2023-08-06T05:30:54;7.32;;;1.70;;
13173;SDS011;6652;48.802;9.190;2023-08-06T05:33:20;1.35;;;1.25;;
13173;SDS011;6652;48.802;9.190;2023-08-06T05:35:48;2.92;;;1.38;;
13173;SDS011;6652;48.802;9.190;2023-08-06T05:38:17;15.73;;;3.25;;
13173;SDS011;6652;48.802;9.190;2023-08-06T05:40:44;3.42;;;0.90;;
13173;SDS011;6652;48.802;9.190;2023-08-06T05:43:10;5.70;;;1.27;;
13173;SDS011;6652;48.802;9.190;2023-08-06T05:45:37;3.20;;;1.08;;
13173;SDS011;6652;48.802;9.190;2023-08-06T05:48:04;3.42;;;1.30;;
13173;SDS011;6652;48.802;9.190;2023-08-06T05:50:31;1.90;;;1.40;;
13173;SDS011;6652;48.802;9.190;2023-08-06T05:52:58;4.35;;;1.40;;
13173;SDS011;6652;48.802;9.190;2023-08-06T05:55:26;4.88;;;1.80;;
13173;SDS011;6652;48.802;9.190;2023-08-06T05:57:52;4.78;;;1.63;;
13173;SDS011;6652;48.802;9.190;2023-08-06T06:00:20;1.85;;;0.93;;
13173;SDS011;6652;48.802;9.190;2023-08-06T06:02:47;5.25;;;1.40;;
13173;SDS011;6652;48.802;9.190;2023-08-06T06:05:13;3.70;;;1.10;;
13173;SDS011;6652;48.802;9.190;2023-08-06T06:07:40;4.90;;;1.20;;
13173;SDS011;6652;48.802;9.190;2023-08-06T06:10:07;3.22;;;0.95;;
13173;SDS011;6652;48.802;9.190;2023-08-06T06:12:37;15.88;;;1.23;;
13173;SDS011;6652;48.802;9.190;2023-08-06T06:15:05;2.47;;;1.17;;
13173;SDS011;6652;48.802;9.190;2023-08-06T06:17:32;2.47;;;0.80;;
13173;SDS011;6652;48.802;9.190;2023-08-06T06:19:59;2.25;;;0.60;;
13173;SDS011;6652;48.802;9.190;2023-08-06T06:22:25;1.67;;;0.70;;
13173;SDS011;6652;48.802;9.190;2023-08-06T06:24:52;1.88;;;0.73;;
13173;SDS011;6652;48.802;9.190;2023-08-06T06:27:19;3.28;;;0.90;;
13173;SDS011;6652;48.802;9.190;2023-08-06T06:29:47;1.75;;;0.70;;
13173;SDS011;6652;48.802;9.190;2023-08-06T06:32:14;2.67;;;0.52;;
13173;SDS011;6652;48.802;9.190;2023-08-06T06:34:41;2.85;;;0.30;;
13173;SDS011;6652;48.802;9.190;2023-08-06T06:37:07;2.83;;;0.88;;
13173;SDS011;6652;48.802;9.190;2023-08-06T06:39:34;3.15;;;0.65;;
13173;SDS011;6652;48.802;9.190;2023-08-06T06:42:01;1.17;;;0.52;;
13173;SDS011;6652;48.802;9.190;2023-08-06T06:44:28;4.35;;;0.75;;
13173;SDS011;6652;48.802;9.190;2023-08-06T06:46:56;5.28;;;0.80;;
13173;SDS011;6652;48.802;9.190;2023-08-06T06:49:23;4.20;;;0.75;;
13173;SDS011;6652;48.802;9.190;2023-08-06T06:51:50;2.95;;;0.50;;
13173;SDS011;6652;48.802;9.190;2023-08-06T06:54:17;2.13;;;0.60;;
13173;SDS011;6652;48.802;9.190;2023-08-06T06:56:44;3.72;;;0.70;;
13173;SDS011;6652;48.802;9.190;2023-08-06T06:59:11;3.38;;;0.77;;
13173;SDS011;6652;48.802;9.190;2023-08-06T07:01:37;3.85;;;0.70;;
13173;SDS011;6652;48.802;9.190;2023-08-06T07:04:05;2.33;;;0.50;;
13173;SDS011;6652;48.802;9.190;2023-08-06T07:06:32;3.08;;;0.50;;
13173;SDS011;6652;48.802;9.190;2023-08-06T07:08:59;1.58;;;0.55;;
13173;SDS011;6652;48.802;9.190;2023-08-06T07:11:26;1.20;;;0.45;;
13173;SDS011;6652;48.802;9.190;2023-08-06T07:13:55;1.15;;;0.50;;
13173;SDS011;6652;48.802;9.190;2023-08-06T07:16:23;1.27;;;0.60;;
13173;SDS011;6652;48.802;9.190;2023-08-06T07:18:50;2.03;;;0.50;;
13173;SDS011;6652;48.802;9.190;2023-08-06T07:21:19;3.58;;;1.05;;
13173;SDS011;6652;48.802;9.190;2023-08-06T07:23:46;6.97;;;0.80;;
13173;SDS011;6652;48.802;9.190;2023-08-06T07:26:14;4.55;;;0.88;;
13173;SDS011;6652;48.802;9.190;2023-08-06T07:28:41;1.67;;;0.70;;
13173;SDS011;6652;48.802;9.190;2023-08-06T07:31:09;2.63;;;0.70;;
13173;SDS011;6652;48.802;9.190;2023-08-06T07:33:36;2.05;;;0.70;;
13173;SDS011;6652;48.802;9.190;2023-08-06T07:36:10;2.85;;;0.50;;
13173;SDS011;6652;48.802;9.190;2023-08-06T07:38:39;1.15;;;0.55;;
13173;SDS011;6652;48.802;9.190;2023-08-06T07:41:06;3.53;;;0.90;;
13173;SDS011;6652;48.802;9.190;2023-08-06T07:43:33;1.38;;;0.47;;
13173;SDS011;6652;48.802;9.190;2023-08-06T07:46:00;1.85;;;0.50;;
13173;SDS011;6652;48.802;9.190;2023-08-06T07:48:27;0.40;;;0.40;;
13173;SDS011;6652;48.802;9.190;2023-08-06T07:50:54;0.60;;;0.38;;
13173;SDS011;6652;48.802;9.190;2023-08-06T07:53:22;3.15;;;0.50;;
13173;SDS011;6652;48.802;9.190;2023-08-06T07:55:53;1.48;;;0.50;;
13173;SDS011;6652;48.802;9.190;2023-08-06T07:58:20;0.50;;;0.43;;
13173;SDS011;6652;48.802;9.190;2023-08-06T08:00:49;1.05;;;0.30;;
13173;SDS011;6652;48.802;9.190;2023-08-06T08:03:16;0.70;;;0.30;;
13173;SDS011;6652;48.802;9.190;2023-08-06T08:05:44;1.65;;;0.38;;
13173;SDS011;6652;48.802;9.190;2023-08-06T08:08:11;1.45;;;0.40;;
13173;SDS011;6652;48.802;9.190;2023-08-06T08:10:38;0.82;;;0.40;;
13173;SDS011;6652;48.802;9.190;2023-08-06T08:13:07;4.65;;;1.00;;
13173;SDS011;6652;48.802;9.190;2023-08-06T08:15:34;1.85;;;0.60;;
13173;SDS011;6652;48.802;9.190;2023-08-06T08:18:01;0.80;;;0.40;;
13173;SDS011;6652;48.802;9.190;2023-08-06T08:20:27;3.00;;;0.10;;
13173;SDS011;6652;48.802;9.190;2023-08-06T08:22:57;0.80;;;0.40;;
13173;SDS011;6652;48.802;9.190;2023-08-06T08:25:25;0.65;;;0.35;;
13173;SDS011;6652;48.802;9.190;2023-08-06T08:27:52;1.10;;;0.63;;
13173;SDS011;6652;48.802;9.190;2023-08-06T08:30:21;0.43;;;0.20;;
13173;SDS011;6652;48.802;9.190;2023-08-06T08:32:50;0.75;;;0.20;;
13173;SDS011;6652;48.802;9.190;2023-08-06T08:35:17;1.75;;;0.20;;
13173;SDS011;6652;48.802;9.190;2023-08-06T08:37:43;0.28;;;0.10;;
13173;SDS011;6652;48.802;9.190;2023-08-06T08:40:11;1.30;;;0.30;;
13173;SDS011;6652;48.802;9.190;2023-08-06T08:42:38;0.10;;;0.00;;
13173;SDS011;6652;48.802;9.190;2023-08-06T08:45:06;0.57;;;0.10;;
13173;SDS011;6652;48.802;9.190;2023-08-06T08:47:39;0.57;;;0.20;;
13173;SDS011;6652;48.802;9.190;2023-08-06T08:50:06;0.20;;;0.15;;
13173;SDS011;6652;48.802;9.190;2023-08-06T08:52:35;0.15;;;0.10;;
13173;SDS011;6652;48.802;9.190;2023-08-06T08:55:04;0.20;;;0.10;;
13173;SDS011;6652;48.802;9.190;2023-08-06T08:57:35;0.70;;;0.00;;
13173;SDS011;6652;48.802;9.190;2023-08-06T09:00:02;0.30;;;0.10;;
13173;SDS011;6652;48.802;9.190;2023-08-06T09:02:30;0.77;;;0.20;;
13173;SDS011;6652;48.802;9.190;2023-08-06T09:05:01;0.10;;;0.10;;
13173;SDS011;6652;48.802;9.190;2023-08-06T09:07:32;0.50;;;0.13;;
13173;SDS011;6652;48.802;9.190;2023-08-06T09:10:01;0.60;;;0.10;;
13173;SDS011;6652;48.802;9.190;2023-08-06T09:12:30;0.30;;;0.10;;
13173;SDS011;6652;48.802;9.190;2023-08-06T09:14:57;0.73;;;0.13;;
13173;SDS011;6652;48.802;9.190;2023-08-06T09:17:24;0.20;;;0.10;;
13173;SDS011;6652;48.802;9.190;2023-08-06T09:19:53;0.20;;;0.20;;
13173;SDS011;6652;48.802;9.190;2023-08-06T09:22:21;0.10;;;0.10;;
13173;SDS011;6652;48.802;9.190;2023-08-06T09:24:47;1.65;;;0.20;;
13173;SDS011;6652;48.802;9.190;2023-08-06T09:27:14;0.10;;;0.10;;
13173;SDS011;6652;48.802;9.190;2023-08-06T09:29:41;0.35;;;0.03;;
13173;SDS011;6652;48.802;9.190;2023-08-06T09:32:10;1.75;;;0.20;;
13173;SDS011;6652;48.802;9.190;2023-08-06T09:34:38;2.38;;;0.30;;
13173;SDS011;6652;48.802;9.190;2023-08-06T09:37:07;0.52;;;0.10;;
13173;SDS011;6652;48.802;9.190;2023-08-06T09:39:38;0.28;;;0.10;;
13173;SDS011;6652;48.802;9.190;2023-08-06T09:42:05;0.40;;;0.10;;
13173;SDS011;6652;48.802;9.190;2023-08-06T09:44:33;0.55;;;0.10;;
13173;SDS011;6652;48.802;9.190;2023-08-06T09:47:01;0.88;;;0.10;;
13173;SDS011;6652;48.802;9.190;2023-08-06T09:49:29;1.33;;;0.10;;
13173;SDS011;6652;48.802;9.190;2023-08-06T09:52:08;0.00;;;0.00;;
13173;SDS011;6652;48.802;9.190;2023-08-06T09:54:38;0.85;;;0.17;;
13173;SDS011;6652;48.802;9.190;2023-08-06T09:57:05;0.22;;;0.03;;
13173;SDS011;6652;48.802;9.190;2023-08-06T09:59:32;1.17;;;0.55;;
13173;SDS011;6652;48.802;9.190;2023-08-06T10:02:00;0.10;;;0.00;;
13173;SDS011;6652;48.802;9.190;2023-08-06T10:04:28;1.00;;;0.20;;
13173;SDS011;6652;48.802;9.190;2023-08-06T10:06:55;0.10;;;0.08;;
13173;SDS011;6652;48.802;9.190;2023-08-06T10:09:24;1.98;;;0.35;;
13173;SDS011;6652;48.802;9.190;2023-08-06T10:11:52;0.30;;;0.17;;
13173;SDS011;6652;48.802;9.190;2023-08-06T10:14:21;0.10;;;0.10;;
13173;SDS011;6652;48.802;9.190;2023-08-06T10:16:51;2.15;;;0.60;;
13173;SDS011;6652;48.802;9.190;2023-08-06T10:19:18;0.50;;;0.20;;
13173;SDS011;6652;48.802;9.190;2023-08-06T10:24:45;1.27;;;0.40;;
13173;SDS011;6652;48.802;9.190;2023-08-06T10:27:20;0.95;;;0.40;;
13173;SDS011;6652;48.802;9.190;2023-08-06T10:29:48;0.13;;;0.10;;
13173;SDS011;6652;48.802;9.190;2023-08-06T10:32:15;0.80;;;0.30;;
13173;SDS011;6652;48.802;9.190;2023-08-06T10:34:53;1.20;;;0.75;;
13173;SDS011;6652;48.802;9.190;2023-08-06T10:37:22;1.80;;;0.10;;
13173;SDS011;6652;48.802;9.190;2023-08-06T10:39:49;0.57;;;0.55;;
13173;SDS011;6652;48.802;9.190;2023-08-06T10:42:28;1.08;;;0.40;;
13173;SDS011;6652;48.802;9.190;2023-08-06T10:45:11;0.40;;;0.30;;
13173;SDS011;6652;48.802;9.190;2023-08-06T10:47:39;1.40;;;0.60;;
13173;SDS011;6652;48.802;9.190;2023-08-06T10:50:06;1.92;;;1.67;;
13173;SDS011;6652;48.802;9.190;2023-08-06T10:52:33;0.25;;;0.25;;
13173;SDS011;6652;48.802;9.190;2023-08-06T10:55:00;0.22;;;0.20;;
13173;SDS011;6652;48.802;9.190;2023-08-06T10:57:29;0.00;;;0.00;;
13173;SDS011;6652;48.802;9.190;2023-08-06T10:59:56;0.30;;;0.10;;
13173;SDS011;6652;48.802;9.190;2023-08-06T11:02:23;0.10;;;0.10;;
13173;SDS011;6652;48.802;9.190;2023-08-06T11:04:49;0.40;;;0.30;;
13173;SDS011;6652;48.802;9.190;2023-08-06T11:07:17;0.20;;;0.20;;
13173;SDS011;6652;48.802;9.190;2023-08-06T11:09:44;0.00;;;0.00;;
13173;SDS011;6652;48.802;9.190;2023-08-06T11:12:10;1.20;;;0.28;;
13173;SDS011;6652;48.802;9.190;2023-08-06T11:14:39;1.33;;;0.30;;
13173;SDS011;6652;48.802;9.190;2023-08-06T11:17:06;0.10;;;0.10;;
13173;SDS011;6652;48.802;9.190;2023-08-06T11:19:33;2.85;;;0.30;;
13173;SDS011;6652;48.802;9.190;2023-08-06T11:22:02;0.82;;;0.25;;
13173;SDS011;6652;48.802;9.190;2023-08-06T11:24:31;1.58;;;0.30;;
13173;SDS011;6652;48.802;9.190;2023-08-06T11:26:58;0.20;;;0.20;;
13173;SDS011;6652;48.802;9.190;2023-08-06T11:29:24;0.88;;;0.70;;
13173;SDS011;6652;48.802;9.190;2023-08-06T11:31:53;0.80;;;0.40;;
13173;SDS011;6652;48.802;9.190;2023-08-06T11:34:29;0.88;;;0.43;;
13173;SDS011;6652;48.802;9.190;2023-08-06T11:36:56;3.08;;;1.27;;
13173;SDS011;6652;48.802;9.190;2023-08-06T11:39:24;2.28;;;0.80;;
13173;SDS011;6652;48.802;9.190;2023-08-06T11:41:50;1.55;;;0.60;;
13173;SDS011;6652;48.802;9.190;2023-08-06T11:44:18;1.25;;;0.70;;
13173;SDS011;6652;48.802;9.190;2023-08-06T11:46:50;0.77;;;0.57;;
13173;SDS011;6652;48.802;9.190;2023-08-06T11:49:44;1.08;;;0.60;;
13173;SDS011;6652;48.802;9.190;2023-08-06T11:52:17;1.55;;;0.65;;
13173;SDS011;6652;48.802;9.190;2023-08-06T11:54:48;0.90;;;0.70;;
13173;SDS011;6652;48.802;9.190;2023-08-06T11:57:33;1.23;;;0.80;;
13173;SDS011;6652;48.802;9.190;2023-08-06T12:00:10;2.17;;;0.93;;
13173;SDS011;6652;48.802;9.190;2023-08-06T12:02:40;4.15;;;0.88;;
13173;SDS011;6652;48.802;9.190;2023-08-06T12:05:11;2.35;;;0.90;;
13173;SDS011;6652;48.802;9.190;2023-08-06T12:07:40;2.33;;;1.00;;
13173;SDS011;6652;48.802;9.190;2023-08-06T12:12:40;1.25;;;1.10;;
13173;SDS011;6652;48.802;9.190;2023-08-06T12:15:10;2.10;;;0.98;;
13173;SDS011;6652;48.802;9.190;2023-08-06T12:17:42;2.90;;;1.33;;
13173;SDS011;6652;48.802;9.190;2023-08-06T12:20:12;3.22;;;1.58;;
13173;SDS011;6652;48.802;9.190;2023-08-06T12:22:41;4.80;;;1.40;;
13173;SDS011;6652;48.802;9.190;2023-08-06T12:25:13;3.70;;;1.50;;
13173;SDS011;6652;48.802;9.190;2023-08-06T12:27:41;2.00;;;1.00;;
13173;SDS011;6652;48.802;9.190;2023-08-06T12:30:11;4.50;;;1.02;;
13173;SDS011;6652;48.802;9.190;2023-08-06T12:32:39;2.17;;;1.10;;
13173;SDS011;6652;48.802;9.190;2023-08-06T12:35:08;2.05;;;1.00;;
13173;SDS011;6652;48.802;9.190;2023-08-06T12:37:38;2.85;;;1.20;;
13173;SDS011;6652;48.802;9.190;2023-08-06T12:40:11;2.28;;;1.10;;
13173;SDS011;6652;48.802;9.190;2023-08-06T12:42:39;2.55;;;1.40;;
13173;SDS011;6652;48.802;9.190;2023-08-06T12:45:16;1.40;;;1.00;;
13173;SDS011;6652;48.802;9.190;2023-08-06T12:47:46;1.42;;;1.00;;
13173;SDS011;6652;48.802;9.190;2023-08-06T12:50:15;1.52;;;1.02;;
13173;SDS011;6652;48.802;9.190;2023-08-06T12:52:44;0.85;;;0.70;;
13173;SDS011;6652;48.802;9.190;2023-08-06T12:55:13;2.78;;;0.90;;
13173;SDS011;6652;48.802;9.190;2023-08-06T12:57:41;0.85;;;0.75;;
13173;SDS011;6652;48.802;9.190;2023-08-06T13:00:09;1.48;;;0.90;;
13173;SDS011;6652;48.802;9.190;2023-08-06T13:02:37;0.85;;;0.70;;
13173;SDS011;6652;48.802;9.190;2023-08-06T13:05:08;0.77;;;0.55;;
13173;SDS011;6652;48.802;9.190;2023-08-06T13:07:39;1.15;;;0.70;;
13173;SDS011;6652;48.802;9.190;2023-08-06T13:10:11;1.95;;;0.85;;
13173;SDS011;6652;48.802;9.190;2023-08-06T13:12:41;1.30;;;0.85;;
13173;SDS011;6652;48.802;9.190;2023-08-06T13:15:11;1.60;;;1.13;;
13173;SDS011;6652;48.802;9.190;2023-08-06T13:17:39;4.47;;;2.53;;
13173;SDS011;6652;48.802;9.190;2023-08-06T13:20:07;3.53;;;0.80;;
13173;SDS011;6652;48.802;9.190;2023-08-06T13:22:39;1.77;;;0.77;;
13173;SDS011;6652;48.802;9.190;2023-08-06T13:25:11;4.60;;;1.00;;
13173;SDS011;6652;48.802;9.190;2023-08-06T13:27:42;0.82;;;0.63;;
13173;SDS011;6652;48.802;9.190;2023-08-06T13:30:23;1.30;;;0.65;;
13173;SDS011;6652;48.802;9.190;2023-08-06T13:32:58;2.45;;;0.88;;
13173;SDS011;6652;48.802;9.190;2023-08-06T13:35:31;0.60;;;0.60;;
13173;SDS011;6652;48.802;9.190;2023-08-06T13:37:59;4.85;;;0.57;;
13173;SDS011;6652;48.802;9.190;2023-08-06T13:40:27;0.88;;;0.50;;
13173;SDS011;6652;48.802;9.190;2023-08-06T13:42:55;1.08;;;0.73;;
13173;SDS011;6652;48.802;9.190;2023-08-06T13:45:22;1.30;;;0.50;;
13173;SDS011;6652;48.802;9.190;2023-08-06T13:47:49;1.30;;;0.57;;
13173;SDS011;6652;48.802;9.190;2023-08-06T13:50:15;1.50;;;0.50;;
13173;SDS011;6652;48.802;9.190;2023-08-06T13:52:42;0.80;;;0.50;;
13173;SDS011;6652;48.802;9.190;2023-08-06T13:55:10;0.45;;;0.40;;
13173;SDS011;6652;48.802;9.190;2023-08-06T13:57:37;2.00;;;0.50;;
13173;SDS011;6652;48.802;9.190;2023-08-06T14:00:05;2.95;;;0.65;;
13173;SDS011;6652;48.802;9.190;2023-08-06T14:02:32;1.45;;;0.80;;
13173;SDS011;6652;48.802;9.190;2023-08-06T14:04:59;3.65;;;0.80;;
13173;SDS011;6652;48.802;9.190;2023-08-06T14:07:26;0.73;;;0.50;;
13173;SDS011;6652;48.802;9.190;2023-08-06T14:09:52;0.43;;;0.30;;
13173;SDS011;6652;48.802;9.190;2023-08-06T14:12:21;3.03;;;0.40;;
13173;SDS011;6652;48.802;9.190;2023-08-06T14:14:47;4.22;;;0.60;;
13173;SDS011;6652;48.802;9.190;2023-08-06T14:17:14;2.38;;;0.60;;
13173;SDS011;6652;48.802;9.190;2023-08-06T14:19:41;1.52;;;0.65;;
13173;SDS011;6652;48.802;9.190;2023-08-06T14:22:08;4.45;;;0.57;;
13173;SDS011;6652;48.802;9.190;2023-08-06T14:24:35;2.13;;;0.63;;
13173;SDS011;6652;48.802;9.190;2023-08-06T14:27:02;2.20;;;0.50;;
13173;SDS011;6652;48.802;9.190;2023-08-06T14:29:30;1.02;;;0.40;;
13173;SDS011;6652;48.802;9.190;2023-08-06T14:31:57;2.15;;;0.50;;
13173;SDS011;6652;48.802;9.190;2023-08-06T14:34:24;2.00;;;0.60;;
13173;SDS011;6652;48.802;9.190;2023-08-06T14:36:50;1.73;;;0.57;;
13173;SDS011;6652;48.802;9.190;2023-08-06T14:39:17;2.05;;;0.63;;
13173;SDS011;6652;48.802;9.190;2023-08-06T14:41:44;1.70;;;0.70;;
13173;SDS011;6652;48.802;9.190;2023-08-06T14:44:11;1.10;;;0.60;;
13173;SDS011;6652;48.802;9.190;2023-08-06T14:46:39;3.35;;;0.98;;
13173;SDS011;6652;48.802;9.190;2023-08-06T14:49:06;1.25;;;0.60;;
13173;SDS011;6652;48.802;9.190;2023-08-06T14:51:33;1.30;;;0.50;;
13173;SDS011;6652;48.802;9.190;2023-08-06T14:53:59;2.58;;;0.60;;
13173;SDS011;6652;48.802;9.190;2023-08-06T14:56:26;1.92;;;0.40;;
13173;SDS011;6652;48.802;9.190;2023-08-06T14:58:53;0.40;;;0.40;;
13173;SDS011;6652;48.802;9.190;2023-08-06T15:01:20;0.40;;;0.32;;
13173;SDS011;6652;48.802;9.190;2023-08-06T15:03:48;1.45;;;0.50;;
13173;SDS011;6652;48.802;9.190;2023-08-06T15:06:15;1.25;;;0.50;;
13173;SDS011;6652;48.802;9.190;2023-08-06T15:08:41;0.50;;;0.50;;
13173;SDS011;6652;48.802;9.190;2023-08-06T15:11:12;1.33;;;0.60;;